Time;durP1;ratioP1;P1;durP2;ratioP2;P2;SDS_P1;SDS_P2;PMS_P1;PMS_P2;Temp;Humidity;BMP_temperature;BMP_pressure;BME280_temperature;BME280_humidity;BME280_pressure;Samples;Min_cycle;Max_cycle;Signal;HPM_P1;HPM_P2
2021/11/21 00:01:56;;;;;;;18.95;5.25;;;8.20;99.90;;;;;;5039267;28;20033;-69
2021/11/21 00:04:22;;;;;;;14.90;5.70;;;8.20;99.90;;;;;;5043003;28;20125;-69
2021/11/21 00:06:48;;;;;;;18.30;5.60;;;8.20;99.90;;;;;;5044846;28;20036;-69
2021/11/21 00:09:14;;;;;;;15.18;5.03;;;8.20;99.90;;;;;;5037710;28;20126;-69
2021/11/21 00:11:40;;;;;;;17.17;5.70;;;8.20;99.90;;;;;;5044796;28;20029;-69
2021/11/21 00:14:06;;;;;;;13.82;5.95;;;8.30;99.90;;;;;;5045006;28;20036;-69
2021/11/21 00:16:33;;;;;;;18.38;5.85;;;8.30;99.90;;;;;;5059719;28;20041;-69
2021/11/21 00:18:58;;;;;;;9.55;3.85;;;8.30;99.90;;;;;;5043921;28;20332;-69
2021/11/21 00:21:24;;;;;;;18.90;5.32;;;8.30;99.90;;;;;;5035424;28;20094;-69
2021/11/21 00:23:49;;;;;;;18.67;5.53;;;8.30;99.90;;;;;;5037603;28;20032;-69
2021/11/21 00:26:15;;;;;;;12.90;4.35;;;8.30;99.90;;;;;;5040315;28;20460;-69
2021/11/21 00:28:41;;;;;;;16.25;5.85;;;8.30;99.90;;;;;;5034585;28;20309;-69
2021/11/21 00:31:06;;;;;;;16.70;5.63;;;8.20;99.90;;;;;;5040998;28;20036;-69
2021/11/21 00:33:33;;;;;;;14.27;5.15;;;8.10;99.90;;;;;;5038741;28;20345;-69
2021/11/21 00:35:59;;;;;;;15.55;5.05;;;8.10;99.90;;;;;;5051536;28;20037;-69
2021/11/21 00:38:25;;;;;;;13.70;4.90;;;8.10;99.90;;;;;;5048819;28;20488;-68
2021/11/21 00:40:52;;;;;;;11.80;5.13;;;8.10;99.90;;;;;;5047984;28;20029;-68
2021/11/21 00:43:20;;;;;;;10.38;4.15;;;8.00;99.90;;;;;;5048207;28;20017;-68
2021/11/21 00:45:46;;;;;;;17.13;5.38;;;8.00;99.90;;;;;;5051494;28;20240;-68
2021/11/21 00:48:19;;;;;;;21.20;6.00;;;7.90;99.90;;;;;;5047400;28;20025;-68
2021/11/21 00:50:44;;;;;;;13.43;5.10;;;8.00;99.90;;;;;;5049090;28;20608;-68
2021/11/21 00:53:11;;;;;;;13.57;5.53;;;7.90;99.90;;;;;;5047995;28;20270;-68
2021/11/21 00:55:52;;;;;;;19.33;6.43;;;7.90;99.90;;;;;;5044857;28;20099;-68
2021/11/21 00:58:18;;;;;;;22.23;5.88;;;7.80;99.90;;;;;;5062506;28;20332;-69
2021/11/21 01:00:47;;;;;;;19.70;6.15;;;7.90;99.90;;;;;;5037351;28;20473;-69
2021/11/21 01:03:15;;;;;;;14.48;5.43;;;7.90;99.90;;;;;;5047847;28;20048;-69
2021/11/21 01:05:42;;;;;;;13.63;4.88;;;7.90;99.90;;;;;;5045875;28;20024;-69
2021/11/21 01:08:08;;;;;;;15.52;6.25;;;8.00;99.90;;;;;;5047333;28;20109;-69
2021/11/21 01:10:35;;;;;;;15.32;5.63;;;7.90;99.90;;;;;;5042230;28;20021;-69
2021/11/21 01:13:01;;;;;;;11.95;5.13;;;7.80;99.90;;;;;;5044133;28;20468;-68
2021/11/21 01:15:26;;;;;;;15.95;5.47;;;7.90;99.90;;;;;;5049046;28;20040;-68
2021/11/21 01:17:54;;;;;;;20.20;6.03;;;7.70;99.90;;;;;;5051623;28;20049;-68
2021/11/21 01:20:23;;;;;;;12.38;4.93;;;7.80;99.90;;;;;;5041171;28;20041;-68
2021/11/21 01:22:49;;;;;;;16.08;5.85;;;7.70;99.90;;;;;;5040581;28;20075;-68
2021/11/21 01:25:15;;;;;;;17.23;6.40;;;7.70;99.90;;;;;;5046219;28;20024;-68
2021/11/21 01:27:42;;;;;;;19.38;6.50;;;7.70;99.90;;;;;;5043700;28;20021;-68
2021/11/21 01:30:11;;;;;;;19.83;6.90;;;7.60;99.90;;;;;;5048334;28;20025;-68
2021/11/21 01:32:37;;;;;;;18.98;6.32;;;7.60;99.90;;;;;;5048505;28;20038;-68
2021/11/21 01:35:03;;;;;;;18.30;6.32;;;7.70;99.90;;;;;;5048156;28;20021;-68
2021/11/21 01:37:29;;;;;;;18.65;5.18;;;7.70;99.90;;;;;;5041990;28;20104;-68
2021/11/21 01:39:55;;;;;;;23.83;6.85;;;7.60;99.90;;;;;;5048332;28;20113;-68
2021/11/21 01:42:22;;;;;;;13.57;5.57;;;7.70;99.90;;;;;;5045397;28;20032;-68
2021/11/21 01:44:48;;;;;;;20.42;6.53;;;7.60;99.90;;;;;;5048463;28;20392;-68
2021/11/21 01:47:14;;;;;;;14.70;5.75;;;7.70;99.90;;;;;;5045334;28;20024;-69
2021/11/21 01:49:39;;;;;;;17.15;5.45;;;7.60;99.90;;;;;;5040603;28;20037;-68
2021/11/21 01:52:05;;;;;;;23.30;7.20;;;7.60;99.90;;;;;;5044204;28;20033;-69
2021/11/21 01:54:31;;;;;;;13.32;5.57;;;7.60;99.90;;;;;;5042964;28;20056;-68
2021/11/21 01:56:57;;;;;;;12.48;5.13;;;7.70;99.90;;;;;;5040561;28;20068;-68
2021/11/21 01:59:23;;;;;;;13.98;5.80;;;7.70;99.90;;;;;;5042919;28;20021;-68
2021/11/21 02:01:49;;;;;;;18.85;6.70;;;7.70;99.90;;;;;;5044807;28;20029;-68
2021/11/21 02:04:15;;;;;;;14.50;5.35;;;7.70;99.90;;;;;;5043317;28;20051;-68
2021/11/21 02:06:40;;;;;;;13.98;5.38;;;7.70;99.90;;;;;;5048473;28;20036;-69
2021/11/21 02:09:06;;;;;;;10.45;4.90;;;7.70;99.90;;;;;;5046216;28;20025;-68
2021/11/21 02:11:33;;;;;;;21.52;5.13;;;7.70;99.90;;;;;;5046616;28;20029;-68
2021/11/21 02:13:58;;;;;;;19.23;4.68;;;7.70;99.90;;;;;;5046899;28;20503;-68
2021/11/21 02:16:27;;;;;;;15.73;5.05;;;7.60;99.90;;;;;;5044017;28;20041;-68
2021/11/21 02:18:53;;;;;;;18.20;5.47;;;7.60;99.90;;;;;;5046981;28;20060;-68
2021/11/21 02:21:20;;;;;;;13.02;4.60;;;7.60;99.90;;;;;;5036698;28;20288;-68
2021/11/21 02:23:47;;;;;;;14.85;4.80;;;7.60;99.90;;;;;;5045979;28;20044;-68
2021/11/21 02:26:15;;;;;;;13.23;4.68;;;7.60;99.90;;;;;;5046054;28;20033;-68
2021/11/21 02:28:41;;;;;;;13.63;5.22;;;7.60;99.90;;;;;;5038542;28;20018;-68
2021/11/21 02:31:07;;;;;;;17.35;6.30;;;7.60;99.90;;;;;;5047284;28;20159;-68
2021/11/21 02:33:33;;;;;;;17.20;6.55;;;7.60;99.90;;;;;;5039252;28;20108;-68
2021/11/21 02:36:02;;;;;;;15.05;5.50;;;7.60;99.90;;;;;;5042188;28;20037;-68
2021/11/21 02:38:29;;;;;;;13.07;4.68;;;7.50;99.90;;;;;;5041798;28;20044;-68
2021/11/21 02:40:57;;;;;;;10.60;4.10;;;7.50;99.90;;;;;;5046429;28;20027;-68
2021/11/21 02:43:23;;;;;;;13.55;5.57;;;7.60;99.90;;;;;;5046292;28;20025;-68
2021/11/21 02:45:50;;;;;;;18.60;4.70;;;7.50;99.90;;;;;;5035146;28;20162;-68
2021/11/21 02:48:18;;;;;;;13.02;4.53;;;7.50;99.90;;;;;;5032783;28;20498;-68
2021/11/21 02:50:44;;;;;;;11.43;5.03;;;7.50;99.90;;;;;;5050752;28;20021;-68
2021/11/21 02:53:10;;;;;;;10.77;4.35;;;7.60;99.90;;;;;;5048206;28;20091;-68
2021/11/21 02:55:36;;;;;;;12.77;4.70;;;7.50;99.90;;;;;;5040958;28;20504;-68
2021/11/21 02:58:03;;;;;;;12.55;4.57;;;7.50;99.90;;;;;;5056857;28;20029;-68
2021/11/21 03:00:30;;;;;;;15.85;5.00;;;7.50;99.90;;;;;;5039027;28;20028;-68
2021/11/21 03:02:56;;;;;;;10.45;4.30;;;7.50;99.90;;;;;;5046617;28;20048;-68
2021/11/21 03:05:21;;;;;;;11.90;4.20;;;7.50;99.90;;;;;;5043074;28;20021;-68
2021/11/21 03:07:48;;;;;;;11.05;3.90;;;7.50;99.90;;;;;;5042666;28;20029;-68
2021/11/21 03:10:19;;;;;;;12.52;4.28;;;7.40;99.90;;;;;;5045426;28;20029;-68
2021/11/21 03:12:51;;;;;;;12.25;4.30;;;7.40;99.90;;;;;;5042843;28;20071;-68
2021/11/21 03:15:17;;;;;;;7.15;3.20;;;7.40;99.90;;;;;;5042470;28;20043;-68
2021/11/21 03:17:43;;;;;;;10.35;4.10;;;7.50;99.90;;;;;;5045831;28;20079;-68
2021/11/21 03:20:11;;;;;;;12.55;5.28;;;7.40;99.90;;;;;;5045730;28;20432;-68
2021/11/21 03:22:37;;;;;;;12.68;4.25;;;7.50;99.90;;;;;;5046046;28;20029;-68
2021/11/21 03:25:03;;;;;;;15.38;5.07;;;7.40;99.90;;;;;;5037960;28;20026;-68
2021/11/21 03:27:29;;;;;;;11.25;3.22;;;7.50;99.90;;;;;;5039901;28;20096;-68
2021/11/21 03:29:55;;;;;;;8.10;3.97;;;7.50;99.90;;;;;;5038436;28;20155;-68
2021/11/21 03:32:20;;;;;;;12.23;4.10;;;7.50;99.90;;;;;;5052656;28;20034;-68
2021/11/21 03:34:46;;;;;;;13.15;4.22;;;7.40;99.90;;;;;;5046267;28;20477;-68
2021/11/21 03:37:12;;;;;;;9.45;3.88;;;7.40;99.90;;;;;;5040109;28;20051;-68
2021/11/21 03:39:38;;;;;;;13.65;4.28;;;7.40;99.90;;;;;;5042955;28;20498;-68
2021/11/21 03:42:04;;;;;;;9.10;3.75;;;7.40;99.90;;;;;;5045896;28;20032;-68
2021/11/21 03:44:30;;;;;;;13.27;4.55;;;7.50;99.90;;;;;;5047370;28;20121;-68
2021/11/21 03:46:56;;;;;;;17.27;5.28;;;7.50;99.90;;;;;;5043883;28;20422;-68
2021/11/21 03:49:22;;;;;;;15.65;4.40;;;7.40;99.90;;;;;;5042932;28;20017;-68
2021/11/21 03:51:48;;;;;;;13.25;4.47;;;7.40;99.90;;;;;;5046141;28;20480;-68
2021/11/21 03:54:13;;;;;;;17.52;4.22;;;7.50;99.90;;;;;;5035884;28;20065;-68
2021/11/21 03:56:40;;;;;;;16.45;4.50;;;7.50;99.90;;;;;;5051528;28;20548;-68
2021/11/21 03:59:06;;;;;;;13.85;5.03;;;7.50;99.90;;;;;;5034686;28;20108;-68
2021/11/21 04:01:32;;;;;;;14.80;5.60;;;7.50;99.90;;;;;;5043757;28;20426;-68
2021/11/21 04:03:58;;;;;;;20.38;5.45;;;7.50;99.90;;;;;;5044910;28;20029;-68
2021/11/21 04:06:23;;;;;;;12.40;4.15;;;7.50;99.90;;;;;;5039565;28;20075;-68
2021/11/21 04:08:49;;;;;;;13.45;3.80;;;7.50;99.90;;;;;;5045001;28;20025;-68
2021/11/21 04:11:15;;;;;;;8.50;3.80;;;7.50;99.90;;;;;;5043759;28;20035;-68
2021/11/21 04:13:40;;;;;;;10.63;3.78;;;7.50;99.90;;;;;;5048440;28;20032;-68
2021/11/21 04:16:06;;;;;;;12.90;4.07;;;7.50;99.90;;;;;;5061142;28;20033;-68
2021/11/21 04:18:33;;;;;;;13.57;5.07;;;7.60;99.90;;;;;;5048675;28;20439;-68
2021/11/21 04:20:59;;;;;;;13.48;5.22;;;7.50;99.90;;;;;;5046401;28;20485;-68
2021/11/21 04:23:29;;;;;;;14.70;5.45;;;7.50;99.90;;;;;;5050623;28;20021;-68
2021/11/21 04:25:56;;;;;;;14.75;4.55;;;7.50;99.90;;;;;;5036683;28;20029;-68
2021/11/21 04:28:21;;;;;;;13.10;4.97;;;7.50;99.90;;;;;;5046113;28;20033;-68
2021/11/21 04:30:47;;;;;;;10.35;3.83;;;7.60;99.90;;;;;;5043134;28;20076;-68
2021/11/21 04:33:13;;;;;;;9.98;3.53;;;7.60;99.90;;;;;;5037752;28;20021;-68
2021/11/21 04:35:38;;;;;;;14.73;5.60;;;7.50;99.90;;;;;;5043889;28;20034;-68
2021/11/21 04:38:04;;;;;;;13.07;4.78;;;7.60;99.90;;;;;;5047092;28;20341;-68
2021/11/21 04:40:30;;;;;;;11.75;5.20;;;7.60;99.90;;;;;;5045031;28;21735;-68
2021/11/21 04:42:55;;;;;;;15.77;4.63;;;7.50;99.90;;;;;;5048435;28;20017;-68
2021/11/21 04:45:21;;;;;;;19.08;6.63;;;7.50;99.90;;;;;;5048177;28;20104;-68
2021/11/21 04:47:46;;;;;;;16.55;4.28;;;7.50;99.90;;;;;;5045008;28;20053;-68
2021/11/21 04:50:14;;;;;;;14.70;5.50;;;7.50;99.90;;;;;;5043055;28;20092;-68
2021/11/21 04:52:40;;;;;;;14.45;3.47;;;7.40;99.90;;;;;;5050024;28;20025;-68
2021/11/21 04:55:07;;;;;;;11.70;4.47;;;7.40;99.90;;;;;;5048072;28;20021;-68
2021/11/21 04:57:33;;;;;;;13.95;5.38;;;7.50;99.90;;;;;;5045514;28;20025;-68
2021/11/21 04:59:58;;;;;;;13.20;5.35;;;7.50;99.90;;;;;;5050828;28;20040;-68
2021/11/21 05:02:24;;;;;;;7.80;3.67;;;7.40;99.90;;;;;;5048364;28;20369;-69
2021/11/21 05:04:50;;;;;;;12.70;3.47;;;7.50;99.90;;;;;;5045362;28;20033;-68
2021/11/21 05:07:18;;;;;;;12.07;4.35;;;7.50;99.90;;;;;;5045919;28;20121;-69
2021/11/21 05:09:43;;;;;;;10.00;3.88;;;7.50;99.90;;;;;;5047705;28;20088;-69
2021/11/21 05:12:09;;;;;;;12.57;4.30;;;7.50;99.90;;;;;;5045034;28;20491;-69
2021/11/21 05:14:35;;;;;;;11.30;3.47;;;7.50;99.90;;;;;;5046422;28;20361;-69
2021/11/21 05:17:01;;;;;;;9.38;4.00;;;7.50;99.90;;;;;;5043708;28;20522;-69
2021/11/21 05:19:26;;;;;;;12.10;3.33;;;7.50;99.90;;;;;;5047258;28;20600;-69
2021/11/21 05:21:52;;;;;;;11.45;4.40;;;7.50;99.90;;;;;;5045775;28;20108;-69
2021/11/21 05:24:23;;;;;;;13.68;4.30;;;7.50;99.90;;;;;;5045312;28;20171;-69
2021/11/21 05:26:49;;;;;;;12.18;4.55;;;7.50;99.90;;;;;;5040994;28;20025;-69
2021/11/21 05:29:14;;;;;;;13.02;4.25;;;7.50;99.90;;;;;;5045465;28;20024;-70
2021/11/21 05:31:40;;;;;;;9.32;3.38;;;7.50;99.90;;;;;;5040353;28;20029;-69
2021/11/21 05:34:06;;;;;;;16.05;4.18;;;7.50;99.90;;;;;;5038934;28;20021;-69
2021/11/21 05:36:31;;;;;;;11.75;4.80;;;7.50;99.90;;;;;;5051591;28;20026;-69
2021/11/21 05:38:57;;;;;;;16.95;4.57;;;7.50;99.90;;;;;;5040235;28;20022;-69
2021/11/21 05:41:22;;;;;;;14.40;4.43;;;7.50;99.90;;;;;;5033579;28;20032;-69
2021/11/21 05:43:48;;;;;;;21.85;5.05;;;7.50;99.90;;;;;;5044260;28;20029;-69
2021/11/21 05:46:14;;;;;;;18.02;5.07;;;7.50;99.90;;;;;;5037717;28;20500;-69
2021/11/21 05:48:39;;;;;;;13.10;4.25;;;7.50;99.90;;;;;;5050676;28;20035;-69
2021/11/21 05:51:05;;;;;;;16.27;5.63;;;7.50;99.90;;;;;;5045246;28;20104;-69
2021/11/21 05:53:30;;;;;;;11.80;4.63;;;7.60;99.90;;;;;;5054870;28;20032;-69
2021/11/21 05:55:56;;;;;;;21.83;5.63;;;7.60;99.90;;;;;;5043217;28;20029;-69
2021/11/21 05:58:23;;;;;;;8.32;4.15;;;7.60;99.90;;;;;;5049916;28;20373;-70
2021/11/21 06:00:49;;;;;;;16.33;5.47;;;7.50;99.90;;;;;;5047006;28;20096;-69
2021/11/21 06:03:14;;;;;;;11.45;4.20;;;7.60;99.90;;;;;;5049773;28;20527;-69
2021/11/21 06:05:40;;;;;;;17.17;6.22;;;7.60;99.90;;;;;;5043708;28;20056;-69
2021/11/21 06:08:06;;;;;;;19.95;5.70;;;7.50;99.90;;;;;;5048090;28;20083;-69
2021/11/21 06:10:33;;;;;;;14.52;6.25;;;7.50;99.90;;;;;;5049359;28;20013;-69
2021/11/21 06:12:59;;;;;;;22.70;4.97;;;7.50;99.90;;;;;;5045622;28;20468;-67
2021/11/21 06:15:25;;;;;;;19.88;6.43;;;7.50;99.90;;;;;;5048146;28;20025;-67
2021/11/21 06:17:50;;;;;;;15.25;5.72;;;7.50;99.90;;;;;;5046562;28;20056;-67
2021/11/21 06:20:16;;;;;;;12.98;5.63;;;7.50;99.90;;;;;;5050777;28;20028;-69
2021/11/21 06:22:42;;;;;;;10.63;4.38;;;7.50;99.90;;;;;;5043231;28;20024;-69
2021/11/21 06:25:10;;;;;;;21.02;5.80;;;7.60;99.90;;;;;;5063538;28;20067;-69
2021/11/21 06:27:36;;;;;;;13.88;4.95;;;7.50;99.90;;;;;;5034468;28;20013;-69
2021/11/21 06:30:02;;;;;;;25.38;6.47;;;7.50;99.90;;;;;;5037508;28;20021;-69
2021/11/21 06:32:28;;;;;;;19.95;7.03;;;7.50;99.90;;;;;;5043004;28;20043;-69
2021/11/21 06:34:54;;;;;;;14.45;6.00;;;7.60;99.90;;;;;;5046470;28;20403;-69
2021/11/21 06:37:19;;;;;;;14.68;6.25;;;7.60;99.90;;;;;;5049608;28;20036;-69
2021/11/21 06:39:45;;;;;;;20.92;5.25;;;7.50;99.90;;;;;;5046518;28;20369;-69
2021/11/21 06:42:12;;;;;;;16.85;5.00;;;7.50;99.90;;;;;;5047166;28;20036;-69
2021/11/21 06:44:39;;;;;;;10.80;5.10;;;7.60;99.90;;;;;;5049421;28;20112;-69
2021/11/21 06:47:05;;;;;;;15.43;4.25;;;7.60;99.90;;;;;;5037106;28;20021;-67
2021/11/21 06:49:31;;;;;;;13.65;5.07;;;7.60;99.90;;;;;;5042355;28;20435;-66
2021/11/21 06:51:57;;;;;;;15.63;4.70;;;7.50;99.90;;;;;;5042918;28;20057;-66
2021/11/21 06:54:23;;;;;;;17.77;5.95;;;7.50;99.90;;;;;;5041825;28;20025;-69
2021/11/21 06:56:48;;;;;;;26.25;7.53;;;7.60;99.90;;;;;;5059419;28;20032;-69
2021/11/21 06:59:14;;;;;;;15.38;5.28;;;7.60;99.90;;;;;;5047958;28;20469;-69
2021/11/21 07:01:41;;;;;;;22.05;5.78;;;7.60;99.90;;;;;;5047094;28;20043;-69
2021/11/21 07:04:10;;;;;;;20.85;6.63;;;7.60;99.90;;;;;;5044009;28;20105;-69
2021/11/21 07:06:39;;;;;;;20.95;6.43;;;7.60;99.90;;;;;;5043594;28;20096;-69
2021/11/21 07:09:07;;;;;;;14.57;5.43;;;7.60;99.90;;;;;;5056576;28;20092;-69
2021/11/21 07:11:33;;;;;;;18.20;5.82;;;7.60;99.90;;;;;;5036667;28;20060;-69
2021/11/21 07:13:59;;;;;;;15.80;5.25;;;7.60;99.90;;;;;;5036520;28;20037;-67
2021/11/21 07:16:25;;;;;;;20.45;6.03;;;7.60;99.90;;;;;;5031643;28;20033;-69
2021/11/21 07:18:50;;;;;;;15.45;6.57;;;7.60;99.90;;;;;;5036011;28;20025;-69
2021/11/21 07:21:16;;;;;;;13.50;4.85;;;7.60;99.90;;;;;;5034956;28;20373;-69
2021/11/21 07:23:43;;;;;;;11.63;5.13;;;7.70;99.90;;;;;;5036929;28;20140;-69
2021/11/21 07:26:09;;;;;;;20.48;5.60;;;7.60;99.90;;;;;;5037402;28;20104;-69
2021/11/21 07:28:35;;;;;;;24.58;6.60;;;7.70;99.90;;;;;;5036273;28;20013;-69
2021/11/21 07:31:01;;;;;;;11.48;4.13;;;7.60;99.90;;;;;;5047233;28;20049;-69
2021/11/21 07:33:26;;;;;;;19.42;5.80;;;7.60;99.90;;;;;;5037678;28;20038;-69
2021/11/21 07:35:54;;;;;;;17.45;7.20;;;7.60;99.90;;;;;;5045376;28;20055;-69
2021/11/21 07:38:20;;;;;;;19.27;5.28;;;7.60;99.90;;;;;;5048424;28;20040;-67
2021/11/21 07:40:46;;;;;;;17.27;5.47;;;7.60;99.90;;;;;;5043694;28;20063;-67
2021/11/21 07:43:12;;;;;;;16.73;5.70;;;7.60;99.90;;;;;;5042324;28;20028;-68
2021/11/21 07:45:37;;;;;;;14.95;4.90;;;7.60;99.90;;;;;;5044168;28;20028;-68
2021/11/21 07:48:04;;;;;;;18.23;5.68;;;7.60;99.90;;;;;;5035703;28;20734;-68
2021/11/21 07:50:30;;;;;;;16.90;5.85;;;7.60;99.90;;;;;;5032546;28;20037;-68
2021/11/21 07:52:55;;;;;;;13.90;4.05;;;7.70;99.90;;;;;;5039193;28;20146;-68
2021/11/21 07:55:21;;;;;;;12.90;5.18;;;7.60;99.90;;;;;;5039649;28;20021;-68
2021/11/21 07:57:47;;;;;;;13.07;4.70;;;7.60;99.90;;;;;;5041587;28;20464;-68
2021/11/21 08:00:14;;;;;;;18.17;5.82;;;7.60;99.90;;;;;;5043232;28;20014;-68
2021/11/21 08:02:39;;;;;;;16.08;5.65;;;7.60;99.90;;;;;;5042115;28;20143;-68
2021/11/21 08:05:06;;;;;;;21.73;6.45;;;7.60;99.90;;;;;;5041483;28;20447;-68
2021/11/21 08:07:32;;;;;;;19.52;5.05;;;7.60;99.90;;;;;;5043793;28;20487;-68
2021/11/21 08:09:58;;;;;;;16.30;4.00;;;7.60;99.90;;;;;;5040109;28;20448;-68
2021/11/21 08:12:24;;;;;;;23.63;4.75;;;7.60;99.90;;;;;;5044167;28;20020;-68
2021/11/21 08:14:50;;;;;;;16.80;5.60;;;7.60;99.90;;;;;;5037059;28;20433;-68
2021/11/21 08:17:17;;;;;;;12.15;3.90;;;7.60;99.90;;;;;;5040573;28;20477;-68
2021/11/21 08:19:43;;;;;;;9.90;3.17;;;7.60;99.90;;;;;;5040422;28;20081;-67
2021/11/21 08:22:09;;;;;;;14.50;3.78;;;7.60;99.90;;;;;;5038821;28;20021;-67
2021/11/21 08:24:35;;;;;;;16.85;4.80;;;7.60;99.90;;;;;;5042040;28;20200;-67
2021/11/21 08:27:01;;;;;;;7.22;3.33;;;7.60;99.90;;;;;;5040077;28;20543;-67
2021/11/21 08:29:26;;;;;;;11.90;4.55;;;7.60;99.90;;;;;;5043038;28;20392;-67
2021/11/21 08:31:52;;;;;;;14.93;4.60;;;7.60;99.90;;;;;;5043928;28;20100;-68
2021/11/21 08:34:18;;;;;;;14.10;4.57;;;7.60;99.90;;;;;;5045702;28;20017;-66
2021/11/21 08:36:44;;;;;;;15.55;3.50;;;7.70;99.90;;;;;;5043138;28;20025;-67
2021/11/21 08:39:09;;;;;;;17.38;4.28;;;7.60;99.90;;;;;;5046447;28;20048;-67
2021/11/21 08:41:35;;;;;;;9.40;3.80;;;7.60;99.90;;;;;;5034829;28;20176;-67
2021/11/21 08:44:01;;;;;;;13.80;4.72;;;7.70;99.90;;;;;;5033901;28;20496;-67
2021/11/21 08:46:27;;;;;;;7.63;3.15;;;7.70;99.90;;;;;;5042877;28;20036;-67
2021/11/21 08:48:54;;;;;;;11.23;2.90;;;7.80;99.90;;;;;;5044259;28;20394;-67
2021/11/21 08:51:21;;;;;;;16.27;4.20;;;7.80;99.90;;;;;;5043506;28;20028;-67
2021/11/21 08:53:47;;;;;;;9.25;3.78;;;7.80;99.90;;;;;;5036816;28;20381;-67
2021/11/21 08:56:14;;;;;;;12.20;3.83;;;7.80;99.90;;;;;;5056772;28;20075;-67
2021/11/21 08:58:39;;;;;;;10.43;4.15;;;7.80;99.90;;;;;;5043061;28;20029;-67
2021/11/21 09:01:05;;;;;;;10.45;4.07;;;7.80;99.90;;;;;;5044174;28;20031;-67
2021/11/21 09:03:31;;;;;;;12.25;3.78;;;7.90;99.90;;;;;;5041912;28;20021;-67
2021/11/21 09:05:57;;;;;;;12.10;3.90;;;7.90;99.90;;;;;;5040077;28;20027;-67
2021/11/21 09:08:24;;;;;;;8.35;3.50;;;8.00;99.90;;;;;;5036707;28;20017;-67
2021/11/21 09:10:54;;;;;;;9.93;3.92;;;8.10;99.90;;;;;;5039232;28;20784;-67
2021/11/21 09:13:20;;;;;;;12.02;3.83;;;8.20;99.90;;;;;;5040332;28;20412;-67
2021/11/21 09:15:46;;;;;;;6.90;2.55;;;8.30;99.90;;;;;;5039469;28;20036;-67
2021/11/21 09:18:12;;;;;;;11.68;4.10;;;8.30;99.90;;;;;;5041604;28;20741;-68
2021/11/21 09:20:38;;;;;;;11.93;3.60;;;8.30;99.90;;;;;;5039290;28;20033;-68
2021/11/21 09:23:09;;;;;;;12.23;5.00;;;8.30;99.90;;;;;;5042568;28;20117;-67
2021/11/21 09:25:34;;;;;;;;;;;8.30;99.90;;;;;;5045798;28;20025;-67
2021/11/21 09:28:00;;;;;;;9.40;4.70;;;8.30;99.90;;;;;;5038283;28;19909;-67
2021/11/21 09:30:26;;;;;;;7.43;3.28;;;8.30;99.90;;;;;;5040231;28;20064;-68
2021/11/21 09:32:52;;;;;;;18.23;3.25;;;8.30;99.90;;;;;;5036723;28;20021;-67
2021/11/21 09:35:18;;;;;;;10.32;3.22;;;8.30;99.90;;;;;;5036671;28;20414;-66
2021/11/21 09:37:44;;;;;;;10.80;3.97;;;8.20;99.90;;;;;;5035219;28;20021;-67
2021/11/21 09:40:10;;;;;;;9.75;2.97;;;8.20;99.90;;;;;;5041679;28;20040;-67
2021/11/21 09:42:38;;;;;;;16.30;4.45;;;8.20;99.90;;;;;;5036120;28;20253;-67
2021/11/21 09:45:05;;;;;;;14.30;3.85;;;8.20;99.90;;;;;;5026874;28;20026;-67
2021/11/21 09:47:31;;;;;;;11.00;5.03;;;8.20;99.90;;;;;;5043283;28;20017;-67
2021/11/21 09:50:03;;;;;;;12.32;3.75;;;8.20;99.90;;;;;;5033017;28;20028;-67
2021/11/21 09:52:29;;;;;;;15.07;4.30;;;8.30;99.90;;;;;;5032698;28;20036;-67
2021/11/21 09:54:54;;;;;;;16.00;3.97;;;8.30;99.90;;;;;;5027693;28;20029;-67
2021/11/21 09:57:20;;;;;;;16.60;5.10;;;8.30;99.90;;;;;;5032154;28;20035;-67
2021/11/21 10:00:00;;;;;;;15.48;4.68;;;8.30;99.90;;;;;;5035043;28;20034;-67
2021/11/21 10:02:30;;;;;;;10.43;3.80;;;8.30;99.90;;;;;;5044789;28;20017;-66
2021/11/21 10:05:00;;;;;;;13.77;4.15;;;8.40;99.90;;;;;;5036567;28;20091;-66
2021/11/21 10:07:28;;;;;;;13.13;4.75;;;8.50;99.90;;;;;;5046042;28;20021;-66
2021/11/21 10:09:56;;;;;;;14.45;5.25;;;8.50;99.90;;;;;;5036650;28;20026;-66
2021/11/21 10:12:23;;;;;;;15.57;4.70;;;8.50;99.90;;;;;;5032619;28;20043;-66
2021/11/21 10:15:16;;;;;;;16.02;5.10;;;8.60;99.90;;;;;;5035172;28;20021;-66
2021/11/21 10:17:46;;;;;;;17.70;5.30;;;8.70;99.90;;;;;;5043345;28;20059;-67
2021/11/21 10:20:20;;;;;;;18.05;5.35;;;8.70;99.90;;;;;;5051361;28;20043;-67
2021/11/21 10:22:49;;;;;;;10.13;4.55;;;8.70;99.90;;;;;;5039709;28;20056;-67
2021/11/21 10:25:35;;;;;;;9.60;3.75;;;8.80;99.90;;;;;;5040895;28;20036;-67
2021/11/21 10:28:06;;;;;;;9.10;3.90;;;8.80;99.90;;;;;;5039669;28;20071;-66
2021/11/21 10:30:34;;;;;;;15.70;4.65;;;8.80;99.90;;;;;;5042864;28;20049;-67
2021/11/21 10:33:04;;;;;;;15.75;4.15;;;8.90;99.90;;;;;;5048276;28;20044;-66
2021/11/21 10:35:31;;;;;;;13.27;4.28;;;8.90;99.90;;;;;;5042817;28;20032;-65
2021/11/21 10:37:58;;;;;;;17.85;5.90;;;9.00;99.90;;;;;;5045129;28;20055;-66
2021/11/21 10:40:24;;;;;;;15.52;4.93;;;8.90;99.90;;;;;;5042774;28;20021;-66
2021/11/21 10:42:51;;;;;;;21.02;5.55;;;8.90;99.90;;;;;;5043878;28;20110;-67
2021/11/21 10:45:24;;;;;;;11.40;4.13;;;8.90;99.90;;;;;;5035477;28;20112;-66
2021/11/21 10:47:55;;;;;;;16.48;4.20;;;9.00;99.90;;;;;;5036204;28;20030;-66
2021/11/21 10:50:35;;;;;;;23.75;6.15;;;9.00;99.90;;;;;;5052741;28;20029;-66
2021/11/21 10:53:03;;;;;;;;;;;9.10;99.90;;;;;;5036342;28;20029;-66
2021/11/21 10:55:29;;;;;;;18.30;5.10;;;8.90;99.90;;;;;;5055309;28;19916;-66
2021/11/21 10:57:54;;;;;;;9.82;4.43;;;8.80;99.90;;;;;;5041487;28;20070;-66
2021/11/21 11:00:22;;;;;;;15.70;5.18;;;8.90;99.90;;;;;;5037787;28;20558;-65
2021/11/21 11:02:52;;;;;;;18.55;6.45;;;8.90;99.90;;;;;;5039490;28;20037;-65
2021/11/21 11:05:23;;;;;;;15.50;6.53;;;8.80;99.90;;;;;;5040115;28;20056;-65
2021/11/21 11:07:48;;;;;;;;;;;8.80;99.90;;;;;;5042043;28;20024;-65
2021/11/21 11:10:28;;;;;;;12.10;3.92;;;8.80;99.90;;;;;;5035918;28;19912;-65
2021/11/21 11:13:03;;;;;;;14.83;4.60;;;9.00;99.90;;;;;;5037000;28;20067;-65
2021/11/21 11:15:35;;;;;;;11.35;3.83;;;9.00;99.90;;;;;;5054455;28;20089;-65
2021/11/21 11:18:01;;;;;;;7.93;3.25;;;8.90;99.90;;;;;;5038122;28;20081;-65
2021/11/21 11:20:27;;;;;;;7.70;2.78;;;8.80;99.90;;;;;;5043248;28;20045;-65
2021/11/21 11:22:55;;;;;;;15.65;4.25;;;8.80;99.90;;;;;;5038579;28;20028;-65
2021/11/21 11:25:35;;;;;;;10.57;3.45;;;8.80;99.90;;;;;;5044226;28;20029;-65
2021/11/21 11:28:25;;;;;;;4.28;2.00;;;8.90;99.90;;;;;;5046227;28;20088;-65
2021/11/21 11:30:52;;;;;;;13.18;4.50;;;8.80;99.90;;;;;;5060922;28;20033;-65
2021/11/21 11:33:20;;;;;;;10.95;3.28;;;8.80;99.90;;;;;;5044328;28;20021;-65
2021/11/21 11:35:48;;;;;;;11.75;3.38;;;8.80;99.90;;;;;;5040143;28;20033;-66
2021/11/21 11:38:26;;;;;;;13.52;4.50;;;8.90;99.90;;;;;;5041111;28;20039;-66
2021/11/21 11:40:55;;;;;;;16.58;4.22;;;8.90;99.90;;;;;;5044949;28;21037;-65
2021/11/21 11:43:24;;;;;;;12.75;4.05;;;8.90;99.90;;;;;;5045597;28;20009;-65
2021/11/21 11:45:51;;;;;;;7.97;3.05;;;8.90;99.90;;;;;;5041947;28;20033;-65
2021/11/21 11:48:29;;;;;;;11.45;3.63;;;9.00;99.90;;;;;;5046425;28;20448;-66
2021/11/21 11:50:55;;;;;;;17.35;4.97;;;8.90;99.90;;;;;;5038280;28;20024;-66
2021/11/21 11:53:45;;;;;;;8.80;2.33;;;9.00;99.90;;;;;;5040584;28;20044;-66
2021/11/21 11:56:25;;;;;;;10.98;3.40;;;9.10;99.90;;;;;;5040596;28;20029;-66
2021/11/21 11:58:55;;;;;;;16.83;4.20;;;9.20;99.90;;;;;;5041084;28;20479;-66
2021/11/21 12:01:42;;;;;;;11.85;3.95;;;9.20;99.90;;;;;;5043225;28;20040;-65
2021/11/21 12:04:16;;;;;;;12.38;4.03;;;9.30;99.90;;;;;;5037100;28;20025;-65
2021/11/21 12:06:53;;;;;;;11.63;3.92;;;9.20;99.90;;;;;;5034573;28;20052;-66
2021/11/21 12:09:21;;;;;;;14.25;3.47;;;9.30;99.90;;;;;;5044401;28;20084;-66
2021/11/21 12:11:51;;;;;;;14.23;3.88;;;9.30;99.90;;;;;;5040957;28;20040;-66
2021/11/21 12:14:44;;;;;;;13.82;3.00;;;9.20;99.90;;;;;;5043290;28;20059;-65
2021/11/21 12:17:16;;;;;;;9.88;2.95;;;9.10;99.90;;;;;;5033587;28;20534;-66
2021/11/21 12:19:46;;;;;;;9.32;3.78;;;9.30;99.90;;;;;;5041538;28;20076;-66
2021/11/21 12:22:24;;;;;;;8.65;3.25;;;9.30;99.90;;;;;;5043561;28;20028;-66
2021/11/21 12:24:54;;;;;;;10.02;3.38;;;9.30;99.90;;;;;;5040344;28;20025;-66
2021/11/21 12:27:31;;;;;;;8.15;2.53;;;9.50;99.90;;;;;;5043493;28;20029;-66
2021/11/21 12:30:02;;;;;;;8.77;2.92;;;9.40;99.90;;;;;;5042793;28;20064;-66
2021/11/21 12:32:29;;;;;;;9.32;2.92;;;9.30;99.90;;;;;;5035868;28;20045;-66
2021/11/21 12:34:56;;;;;;;13.77;3.08;;;9.10;99.90;;;;;;5041370;28;20059;-66
2021/11/21 12:37:35;;;;;;;17.85;3.47;;;9.10;99.90;;;;;;5047871;28;20036;-66
2021/11/21 12:40:07;;;;;;;10.13;3.07;;;9.30;99.90;;;;;;5046105;28;20041;-66
2021/11/21 12:42:33;;;;;;;7.20;2.35;;;9.50;99.90;;;;;;5045128;28;20029;-66
2021/11/21 12:45:10;;;;;;;8.50;2.45;;;9.40;99.90;;;;;;5039586;28;20817;-66
2021/11/21 12:47:37;;;;;;;7.70;2.15;;;9.30;99.90;;;;;;5041266;28;20017;-66
2021/11/21 12:50:04;;;;;;;6.20;2.25;;;9.40;99.90;;;;;;5036859;28;20311;-66